Time;durP1;ratioP1;P1;durP2;ratioP2;P2;SDS_P1;SDS_P2;PMS_P1;PMS_P2;Temp;Humidity;BMP_temperature;BMP_pressure;BME280_temperature;BME280_humidity;BME280_pressure;Samples;Min_cycle;Max_cycle;Signal;HPM_P1;HPM_P2
2023/01/23 00:01:34;;;;;;;;;;;2.60;87.20;;;;;;5078187;28;19958;-77
2023/01/23 00:04:00;;;;;;;;;;;2.60;87.00;;;;;;5071561;28;19995;-75
2023/01/23 00:06:26;;;;;;;;;;;2.60;87.20;;;;;;5084987;28;20008;-76
2023/01/23 00:08:51;;;;;;;;;;;2.50;87.40;;;;;;5090655;28;19912;-76
2023/01/23 00:11:20;;;;;;;;;;;2.60;87.60;;;;;;5088532;22;20458;-81
2023/01/23 00:14:02;;;;;;;;;;;2.60;87.50;;;;;;5045347;28;19927;-82
2023/01/23 00:16:29;;;;;;;;;;;2.70;87.10;;;;;;5049317;28;19979;-82
2023/01/23 00:18:55;;;;;;;;;;;2.60;87.10;;;;;;5052310;28;19920;-81
2023/01/23 00:21:22;;;;;;;;;;;2.70;87.20;;;;;;5052826;28;19916;-81
2023/01/23 00:23:49;;;;;;;;;;;2.90;86.80;;;;;;5031530;28;19991;-81
2023/01/23 00:26:22;;;;;;;;;;;2.80;86.80;;;;;;5047892;28;19913;-82
2023/01/23 00:28:48;;;;;;;;;;;3.00;86.90;;;;;;5050963;28;20436;-81
2023/01/23 00:31:23;;;;;;;;;;;3.00;86.60;;;;;;5052327;28;19913;-81
2023/01/23 00:33:51;;;;;;;;;;;3.10;86.70;;;;;;5034862;28;19975;-81
2023/01/23 00:36:19;;;;;;;;;;;3.10;86.30;;;;;;5051144;28;19920;-81
2023/01/23 00:38:54;;;;;;;;;;;3.10;86.00;;;;;;5051317;28;20350;-81
2023/01/23 00:41:34;;;;;;;;;;;3.20;86.00;;;;;;5035220;28;20378;-80
2023/01/23 00:43:59;;;;;;;;;;;3.20;85.80;;;;;;5028538;28;19980;-81
2023/01/23 00:46:34;;;;;;;;;;;3.20;85.60;;;;;;5056762;28;20008;-81
2023/01/23 00:49:07;;;;;;;;;;;3.20;85.70;;;;;;5049630;28;19934;-81
2023/01/23 00:51:39;;;;;;;;;;;3.20;85.90;;;;;;5036503;28;19925;-81
2023/01/23 00:54:07;;;;;;;;;;;3.30;85.90;;;;;;5062701;28;19923;-81
2023/01/23 00:56:33;;;;;;;;;;;3.20;85.40;;;;;;5052629;28;19952;-81
2023/01/23 00:58:58;;;;;;;;;;;3.20;85.90;;;;;;5053578;28;19913;-80
2023/01/23 01:01:31;;;;;;;;;;;3.20;85.80;;;;;;5057572;28;19916;-81
2023/01/23 01:04:18;;;;;;;;;;;3.30;85.30;;;;;;5042743;28;19913;-81
2023/01/23 01:06:43;;;;;;;;;;;3.20;85.50;;;;;;5044911;28;19921;-81
2023/01/23 01:09:08;;;;;;;;;;;3.10;85.50;;;;;;5038317;28;20387;-81
2023/01/23 01:11:36;;;;;;;;;;;3.10;85.60;;;;;;5052565;28;19973;-81
2023/01/23 01:14:09;;;;;;;;;;;3.10;85.30;;;;;;5051508;28;19956;-81
2023/01/23 01:16:44;;;;;;;;;;;3.10;85.70;;;;;;5050962;28;20267;-81
2023/01/23 01:19:11;;;;;;;;;;;3.00;85.80;;;;;;5050379;28;20100;-81
2023/01/23 01:21:43;;;;;;;;;;;3.20;85.70;;;;;;5032029;28;19947;-81
2023/01/23 01:24:19;;;;;;;;;;;3.10;85.60;;;;;;5033529;28;19913;-81
2023/01/23 01:26:50;;;;;;;;;;;3.10;85.90;;;;;;5030847;28;20413;-81
2023/01/23 01:29:16;;;;;;;;;;;3.20;85.50;;;;;;5035915;28;19970;-81
2023/01/23 01:31:41;;;;;;;;;;;3.10;85.70;;;;;;5032240;28;19913;-81
2023/01/23 01:34:10;;;;;;;;;;;3.10;85.50;;;;;;5059529;28;20393;-81
2023/01/23 01:36:39;;;;;;;;;;;3.30;85.30;;;;;;5049040;28;19920;-81
2023/01/23 01:39:04;;;;;;;;;;;3.20;85.20;;;;;;5040992;28;20055;-81
2023/01/23 01:41:30;;;;;;;;;;;3.10;85.10;;;;;;5052218;28;19963;-81
2023/01/23 01:43:55;;;;;;;;;;;3.10;85.80;;;;;;5034442;28;20342;-81
2023/01/23 01:46:28;;;;;;;;;;;3.20;85.70;;;;;;5036067;28;19912;-81
2023/01/23 01:49:17;;;;;;;;;;;3.30;85.40;;;;;;5029173;28;19920;-81
2023/01/23 01:51:44;;;;;;;;;;;3.30;85.70;;;;;;5044853;28;19928;-81
2023/01/23 01:54:28;;;;;;;;;;;3.30;85.10;;;;;;5069633;28;19920;-81
2023/01/23 01:57:13;;;;;;;;;;;3.30;85.00;;;;;;5045308;28;20335;-82
2023/01/23 01:59:42;;;;;;;;;;;3.30;85.30;;;;;;5047679;28;20432;-81
2023/01/23 02:02:13;;;;;;;;;;;3.20;85.20;;;;;;5050596;28;19964;-81
2023/01/23 02:04:43;;;;;;;;;;;3.20;85.40;;;;;;5025816;28;19917;-81
2023/01/23 02:07:20;;;;;;;;;;;3.20;85.30;;;;;;5049443;28;19913;-81
2023/01/23 02:09:47;;;;;;;;;;;3.20;85.50;;;;;;5034751;28;19913;-81
2023/01/23 02:12:13;;;;;;;;;;;3.30;85.70;;;;;;5038500;28;19924;-81
2023/01/23 02:14:38;;;;;;;;;;;3.30;85.60;;;;;;5034012;28;19939;-81
2023/01/23 02:17:04;;;;;;;;;;;3.30;85.40;;;;;;5041446;28;19920;-81
2023/01/23 02:19:48;;;;;;;;;;;3.30;85.70;;;;;;5044712;28;19970;-81
2023/01/23 02:22:17;;;;;;;;;;;3.40;85.40;;;;;;5052837;28;19966;-81
2023/01/23 02:24:54;;;;;;;;;;;3.40;85.00;;;;;;5042408;28;19928;-81
2023/01/23 02:27:20;;;;;;;;;;;3.40;85.00;;;;;;5034165;28;19924;-81
2023/01/23 02:29:50;;;;;;;;;;;3.40;85.10;;;;;;5034139;28;20317;-81
2023/01/23 02:32:18;;;;;;;;;;;3.40;85.10;;;;;;5032655;28;19921;-81
2023/01/23 02:34:47;;;;;;;;;;;3.40;85.40;;;;;;5033123;28;19921;-80
2023/01/23 02:37:28;;;;;;;;;;;3.40;85.40;;;;;;5039932;28;20645;-82
2023/01/23 02:39:57;;;;;;;;;;;3.40;85.30;;;;;;5047178;28;19920;-81
2023/01/23 02:42:23;;;;;;;;;;;3.50;85.50;;;;;;5047129;28;19920;-81
2023/01/23 02:44:52;;;;;;;;;;;3.40;85.30;;;;;;5042882;28;20336;-80
2023/01/23 02:47:18;;;;;;;;;;;3.40;85.40;;;;;;5038696;28;19913;-80
2023/01/23 02:49:43;;;;;;;;;;;3.30;85.50;;;;;;5027880;28;19927;-80
2023/01/23 02:52:09;;;;;;;;;;;3.40;85.80;;;;;;5044990;28;20012;-80
2023/01/23 02:54:35;;;;;;;;;;;3.40;85.40;;;;;;5050096;28;19921;-80
2023/01/23 02:57:00;;;;;;;;;;;3.40;85.60;;;;;;5032582;28;20514;-81
2023/01/23 03:02:11;;;;;;;;;;;3.30;85.80;;;;;;5042418;28;19925;-80
2023/01/23 03:04:41;;;;;;;;;;;3.00;86.00;;;;;;5042589;28;20394;-80
2023/01/23 03:07:10;;;;;;;;;;;2.90;86.50;;;;;;5031859;28;20301;-81
2023/01/23 03:09:36;;;;;;;;;;;2.80;86.80;;;;;;5041974;28;20406;-81
2023/01/23 03:12:03;;;;;;;;;;;2.70;87.10;;;;;;5046820;28;19952;-80
2023/01/23 03:14:31;;;;;;;;;;;2.70;87.30;;;;;;5044313;28;19975;-80
2023/01/23 03:16:57;;;;;;;;;;;2.70;87.50;;;;;;5027422;28;19913;-81
2023/01/23 03:19:26;;;;;;;;;;;2.60;87.60;;;;;;5034987;28;19917;-80
2023/01/23 03:21:53;;;;;;;;;;;2.60;87.80;;;;;;5047721;28;20381;-81
2023/01/23 03:24:19;;;;;;;;;;;2.60;87.70;;;;;;5049270;28;19919;-81
2023/01/23 03:26:46;;;;;;;;;;;2.50;87.90;;;;;;5030025;28;20004;-81
2023/01/23 03:31:57;;;;;;;;;;;2.40;88.30;;;;;;5044304;28;19967;-81
2023/01/23 03:34:23;;;;;;;;;;;2.40;88.60;;;;;;5048359;28;19920;-81
2023/01/23 03:36:59;;;;;;;;;;;2.40;88.70;;;;;;5033514;28;20397;-81
2023/01/23 03:42:16;;;;;;;;;;;2.30;88.90;;;;;;5051446;28;19970;-81
2023/01/23 03:44:41;;;;;;;;;;;2.30;89.00;;;;;;5048397;28;19912;-81
2023/01/23 03:47:07;;;;;;;;;;;2.30;89.10;;;;;;5039745;28;20386;-81
2023/01/23 03:49:35;;;;;;;;;;;2.30;89.20;;;;;;5040462;28;19913;-81
2023/01/23 03:52:01;;;;;;;;;;;2.30;89.20;;;;;;5040611;28;20317;-81
2023/01/23 03:54:26;;;;;;;;;;;2.30;89.30;;;;;;5055923;28;19917;-81
2023/01/23 03:56:55;;;;;;;;;;;2.40;89.20;;;;;;5027682;28;20552;-80
2023/01/23 03:59:24;;;;;;;;;;;2.60;89.20;;;;;;5049737;28;19917;-81
2023/01/23 04:01:52;;;;;;;;;;;2.60;89.10;;;;;;5050224;28;19913;-81
2023/01/23 04:04:17;;;;;;;;;;;2.70;88.90;;;;;;5032697;28;19913;-82
2023/01/23 04:06:43;;;;;;;;;;;2.60;88.30;;;;;;5043867;28;19980;-81
2023/01/23 04:09:14;;;;;;;;;;;2.60;88.40;;;;;;5035263;28;20366;-81
2023/01/23 04:11:40;;;;;;;;;;;2.80;88.40;;;;;;5034032;28;20378;-81
2023/01/23 04:14:05;;;;;;;;;;;2.70;87.70;;;;;;5053768;28;19927;-81
2023/01/23 04:16:31;;;;;;;;;;;2.60;87.80;;;;;;5060360;28;20366;-81
2023/01/23 04:18:59;;;;;;;;;;;2.80;87.70;;;;;;5052547;28;20016;-80
2023/01/23 04:21:32;;;;;;;;;;;2.90;87.50;;;;;;5045713;28;19921;-80
2023/01/23 04:23:58;;;;;;;;;;;2.90;87.50;;;;;;5054316;28;19947;-81
2023/01/23 04:26:29;;;;;;;;;;;2.80;87.30;;;;;;5050225;28;19921;-81
2023/01/23 04:28:57;;;;;;;;;;;2.70;87.30;;;;;;5037481;28;19969;-82
2023/01/23 04:31:23;;;;;;;;;;;2.60;87.60;;;;;;5053731;28;19952;-81
2023/01/23 04:33:48;;;;;;;;;;;2.50;87.80;;;;;;5045265;28;19968;-81
2023/01/23 04:36:16;;;;;;;;;;;2.60;88.00;;;;;;5053409;28;19916;-81
2023/01/23 04:38:44;;;;;;;;;;;2.50;87.70;;;;;;5051935;28;19964;-81
2023/01/23 04:41:13;;;;;;;;;;;2.60;87.90;;;;;;5056399;28;19997;-80
2023/01/23 04:43:39;;;;;;;;;;;2.60;87.90;;;;;;5035223;28;19913;-82
2023/01/23 04:46:04;;;;;;;;;;;2.60;87.40;;;;;;5035434;28;20289;-82
2023/01/23 04:48:30;;;;;;;;;;;2.60;87.60;;;;;;5035332;28;20003;-82
2023/01/23 04:50:55;;;;;;;;;;;2.60;87.70;;;;;;5031370;28;19921;-82
2023/01/23 04:53:23;;;;;;;;;;;2.50;87.90;;;;;;5043743;28;19920;-81
2023/01/23 04:55:51;;;;;;;;;;;2.50;88.20;;;;;;5054840;28;19912;-81
2023/01/23 04:58:18;;;;;;;;;;;2.50;88.00;;;;;;5028754;28;19963;-82
2023/01/23 05:00:43;;;;;;;;;;;2.40;88.20;;;;;;5030600;28;19921;-81
2023/01/23 05:03:09;;;;;;;;;;;2.40;88.30;;;;;;5045549;28;20070;-81
2023/01/23 05:05:34;;;;;;;;;;;2.40;88.50;;;;;;5033972;28;19941;-81
2023/01/23 05:08:00;;;;;;;;;;;2.30;88.60;;;;;;5059342;28;19952;-80
2023/01/23 05:10:33;;;;;;;;;;;2.40;88.70;;;;;;5050954;28;19917;-81
2023/01/23 05:12:58;;;;;;;;;;;2.40;88.70;;;;;;5043438;28;19917;-81
2023/01/23 05:15:24;;;;;;;;;;;2.40;88.70;;;;;;5055759;28;21764;-81
2023/01/23 05:18:01;;;;;;;;;;;2.50;88.40;;;;;;5035455;28;20009;-80
2023/01/23 05:20:27;;;;;;;;;;;2.50;88.30;;;;;;5049730;28;20058;-81
2023/01/23 05:22:52;;;;;;;;;;;2.50;88.30;;;;;;5047509;28;19999;-81
2023/01/23 05:25:53;;;;;;;;;;;;;;;;;;;;;
2023/01/23 05:28:09;;;;;;;;;;;2.50;88.40;;;;;;5030446;28;19913;-81
2023/01/23 05:30:34;;;;;;;;;;;2.60;88.00;;;;;;5049125;28;19948;-81
2023/01/23 05:33:05;;;;;;;;;;;2.50;87.70;;;;;;5050240;28;20345;-80
2023/01/23 05:35:39;;;;;;;;;;;2.60;87.90;;;;;;5046321;28;19921;-80
2023/01/23 05:38:08;;;;;;;;;;;2.80;87.50;;;;;;5041233;28;19913;-80
2023/01/23 05:40:42;;;;;;;;;;;2.70;87.30;;;;;;5051438;28;19936;-82
2023/01/23 05:43:10;;;;;;;;;;;2.70;87.10;;;;;;5049505;28;20043;-80
2023/01/23 05:45:36;;;;;;;;;;;2.60;87.00;;;;;;5048930;28;19916;-80
2023/01/23 05:48:01;;;;;;;;;;;2.60;87.20;;;;;;5033416;28;19912;-81
2023/01/23 05:50:26;;;;;;;;;;;2.50;87.20;;;;;;5047895;28;20389;-82
2023/01/23 05:52:52;;;;;;;;;;;2.50;87.20;;;;;;5038478;28;20437;-82
2023/01/23 05:55:17;;;;;;;;;;;2.60;87.20;;;;;;5050071;28;19967;-81
2023/01/23 05:57:43;;;;;;;;;;;2.70;87.30;;;;;;5029331;28;19917;-81
2023/01/23 06:00:10;;;;;;;;;;;2.80;87.20;;;;;;5033867;28;19919;-84
2023/01/23 06:02:35;;;;;;;;;;;2.80;87.20;;;;;;5055202;28;19963;-81
2023/01/23 06:05:01;;;;;;;;;;;2.90;87.00;;;;;;5056414;28;19921;-81
2023/01/23 06:07:26;;;;;;;;;;;2.90;87.00;;;;;;5045458;28;19920;-80
2023/01/23 06:09:52;;;;;;;;;;;2.90;86.70;;;;;;5058435;28;19913;-82
2023/01/23 06:12:17;;;;;;;;;;;2.80;86.60;;;;;;5068242;22;20303;-76
2023/01/23 06:14:43;;;;;;;;;;;2.80;86.70;;;;;;5068809;28;19988;-77
2023/01/23 06:17:10;;;;;;;;;;;2.90;86.90;;;;;;5062979;28;19919;-77
2023/01/23 06:19:36;;;;;;;;;;;2.90;86.50;;;;;;5058247;28;20360;-77
2023/01/23 06:22:01;;;;;;;;;;;3.00;86.70;;;;;;5047652;28;20003;-77
2023/01/23 06:24:27;;;;;;;;;;;3.00;86.40;;;;;;5041213;28;19949;-76
2023/01/23 06:26:52;;;;;;;;;;;3.00;86.30;;;;;;5048583;28;20022;-77
2023/01/23 06:29:17;;;;;;;;;;;3.00;86.50;;;;;;5029128;28;19909;-76
2023/01/23 06:31:44;;;;;;;;;;;3.00;86.70;;;;;;5059416;28;20990;-77
2023/01/23 06:34:10;;;;;;;;;;;3.00;86.40;;;;;;5050828;28;19913;-78
2023/01/23 06:36:36;;;;;;;;;;;3.10;86.60;;;;;;5054115;28;19983;-78
2023/01/23 06:39:01;;;;;;;;;;;3.10;86.20;;;;;;5057208;28;19908;-76
2023/01/23 06:41:27;;;;;;;;;;;3.00;86.40;;;;;;5056183;28;19975;-76
2023/01/23 06:43:53;;;;;;;;;;;3.00;86.60;;;;;;5046546;28;20017;-76
2023/01/23 06:46:19;;;;;;;;;;;2.90;86.70;;;;;;5039020;28;19930;-76
2023/01/23 06:48:44;;;;;;;;;;;2.80;86.80;;;;;;5046971;28;19920;-76
2023/01/23 06:51:10;;;;;;;;;;;3.00;87.00;;;;;;5033808;28;19920;-76
2023/01/23 06:53:35;;;;;;;;;;;2.90;86.90;;;;;;5044662;28;19917;-76
2023/01/23 06:56:02;;;;;;;;;;;2.90;87.10;;;;;;5046965;28;19916;-78
2023/01/23 06:58:27;;;;;;;;;;;2.90;87.10;;;;;;5046149;28;19962;-77
2023/01/23 07:00:53;;;;;;;;;;;3.00;86.80;;;;;;5040857;28;19920;-75
2023/01/23 07:03:19;;;;;;;;;;;3.10;86.60;;;;;;5045065;28;19915;-76
2023/01/23 07:05:44;;;;;;;;;;;3.10;86.60;;;;;;5045304;28;19916;-77
2023/01/23 07:08:10;;;;;;;;;;;3.20;86.20;;;;;;5018892;28;20008;-77
2023/01/23 07:10:36;;;;;;;;;;;3.10;86.20;;;;;;5044703;28;19974;-76
2023/01/23 07:13:05;;;;;;;;;;;3.00;86.50;;;;;;5045722;28;19951;-77
2023/01/23 07:15:31;;;;;;;;;;;2.90;86.30;;;;;;5056992;28;19959;-77
2023/01/23 07:17:57;;;;;;;;;;;2.80;86.70;;;;;;5043985;28;19948;-77
2023/01/23 07:20:26;;;;;;;;;;;2.90;87.00;;;;;;5046664;28;19916;-77
2023/01/23 07:22:55;;;;;;;;;;;3.00;86.90;;;;;;5042626;28;19924;-77
2023/01/23 07:25:21;;;;;;;;;;;3.00;87.00;;;;;;5051297;28;20237;-77
2023/01/23 07:27:46;;;;;;;;;;;3.00;86.70;;;;;;5032181;28;19913;-77
2023/01/23 07:30:12;;;;;;;;;;;2.90;86.60;;;;;;5052835;28;19912;-77
2023/01/23 07:32:37;;;;;;;;;;;3.00;86.60;;;;;;5058768;28;20404;-77
2023/01/23 07:35:03;;;;;;;;;;;2.90;86.40;;;;;;5041847;28;20411;-77
2023/01/23 07:37:28;;;;;;;;;;;3.00;86.60;;;;;;5049577;28;20296;-78
2023/01/23 07:39:54;;;;;;;;;;;2.90;86.70;;;;;;5065532;28;19948;-76
2023/01/23 07:42:19;;;;;;;;;;;3.00;86.70;;;;;;5053027;28;20365;-77
2023/01/23 07:44:45;;;;;;;;;;;3.00;86.60;;;;;;5050948;28;20408;-77
2023/01/23 07:47:10;;;;;;;;;;;3.00;86.50;;;;;;5050067;28;19913;-77
2023/01/23 07:49:36;;;;;;;;;;;2.80;86.70;;;;;;5045780;28;19913;-76
2023/01/23 07:52:02;;;;;;;;;;;2.60;87.30;;;;;;5051657;28;19919;-77
2023/01/23 07:54:28;;;;;;;;;;;2.60;87.40;;;;;;5059125;28;19923;-76
2023/01/23 07:56:53;;;;;;;;;;;2.60;87.80;;;;;;5049147;28;19925;-76
2023/01/23 07:59:18;;;;;;;;;;;2.50;87.80;;;;;;5053784;28;19913;-77
2023/01/23 08:01:44;;;;;;;;;;;2.50;88.00;;;;;;5053133;28;20356;-76
2023/01/23 08:04:09;;;;;;;;;;;2.50;88.00;;;;;;5061251;28;20297;-77
2023/01/23 08:06:35;;;;;;;;;;;2.60;87.90;;;;;;5043576;28;20376;-77
2023/01/23 08:09:01;;;;;;;;;;;2.60;87.90;;;;;;5038423;28;19915;-77
2023/01/23 08:11:26;;;;;;;;;;;2.60;87.60;;;;;;5057117;28;19924;-76
2023/01/23 08:13:52;;;;;;;;;;;2.70;87.60;;;;;;5054979;28;19924;-76
2023/01/23 08:16:17;;;;;;;;;;;2.70;87.60;;;;;;5028061;28;19913;-76
2023/01/23 08:18:43;;;;;;;;;;;2.70;87.70;;;;;;5054067;28;19921;-77
2023/01/23 08:21:08;;;;;;;;;;;2.80;87.00;;;;;;5041089;28;19951;-76
2023/01/23 08:23:34;;;;;;;;;;;2.80;87.10;;;;;;5066582;28;19912;-76
2023/01/23 08:26:01;;;;;;;;;;;2.70;86.90;;;;;;5051588;28;19917;-76
2023/01/23 08:28:26;;;;;;;;;;;2.70;87.00;;;;;;5049535;28;20077;-78
2023/01/23 08:30:52;;;;;;;;;;;2.60;87.10;;;;;;5041855;28;19959;-77
2023/01/23 08:33:18;;;;;;;;;;;2.50;87.30;;;;;;5034152;28;19947;-78
2023/01/23 08:35:50;;;;;;;;;;;2.50;87.20;;;;;;5046311;28;20630;-77
2023/01/23 08:38:17;;;;;;;;;;;2.50;87.30;;;;;;5048442;28;19959;-77
2023/01/23 08:40:43;;;;;;;;;;;2.60;87.40;;;;;;5027454;28;19921;-76
2023/01/23 08:43:10;;;;;;;;;;;2.60;87.30;;;;;;5032498;28;20384;-77
2023/01/23 08:45:36;;;;;;;;;;;2.60;87.20;;;;;;5039002;28;19924;-77
2023/01/23 08:48:01;;;;;;;;;;;2.60;87.00;;;;;;5049518;28;19913;-77
2023/01/23 08:50:27;;;;;;;;;;;2.80;87.20;;;;;;5054020;28;20115;-75
2023/01/23 08:52:53;;;;;;;;;;;2.80;86.60;;;;;;5043858;28;19928;-76
2023/01/23 08:55:19;;;;;;;;;;;2.80;86.40;;;;;;5047491;28;20584;-76
2023/01/23 08:57:44;;;;;;;;;;;2.80;86.00;;;;;;5051837;28;19913;-78
2023/01/23 09:00:10;;;;;;;;;;;2.70;86.40;;;;;;5053135;28;19915;-77
2023/01/23 09:02:35;;;;;;;;;;;2.70;86.50;;;;;;5051301;28;19913;-78
2023/01/23 09:05:01;;;;;;;;;;;2.70;86.60;;;;;;5037119;28;19917;-76
2023/01/23 09:07:26;;;;;;;;;;;2.70;86.70;;;;;;5045794;28;19996;-77
2023/01/23 09:09:53;;;;;;;;;;;2.70;86.50;;;;;;5028385;28;20381;-76
2023/01/23 09:12:19;;;;;;;;;;;2.70;86.40;;;;;;5046951;28;19928;-78
2023/01/23 09:14:44;;;;;;;;;;;2.70;86.10;;;;;;5048366;28;19929;-77
2023/01/23 09:17:10;;;;;;;;;;;2.70;86.30;;;;;;5038890;28;19923;-76
2023/01/23 09:19:35;;;;;;;;;;;2.80;86.20;;;;;;5051368;28;19919;-76
2023/01/23 09:22:01;;;;;;;;;;;2.80;86.20;;;;;;5046702;28;20598;-77
2023/01/23 09:24:27;;;;;;;;;;;2.80;85.90;;;;;;5046738;28;19944;-77
2023/01/23 09:26:52;;;;;;;;;;;2.80;85.60;;;;;;5039963;28;19920;-77
2023/01/23 09:29:18;;;;;;;;;;;2.80;85.90;;;;;;5048441;28;19919;-77
2023/01/23 09:31:43;;;;;;;;;;;2.80;85.80;;;;;;5042475;28;19928;-77
2023/01/23 09:34:08;;;;;;;;;;;3.00;85.30;;;;;;5049273;28;20285;-76
2023/01/23 09:36:34;;;;;;;;;;;3.00;84.90;;;;;;5048375;28;19947;-77
2023/01/23 09:39:00;;;;;;;;;;;3.00;85.00;;;;;;5048138;28;19913;-77
2023/01/23 09:41:27;;;;;;;;;;;3.10;85.00;;;;;;5051250;28;20381;-78
2023/01/23 09:43:56;;;;;;;;;;;3.10;84.40;;;;;;5049668;28;19979;-79
2023/01/23 09:46:24;;;;;;;;;;;3.10;84.30;;;;;;5054208;28;20369;-79
2023/01/23 09:49:00;;;;;;;;;;;3.10;84.60;;;;;;5049775;28;20349;-79
2023/01/23 09:51:48;;;;;;;;;;;3.00;84.30;;;;;;5033675;28;19913;-78
2023/01/23 09:54:32;;;;;;;;;;;3.00;84.40;;;;;;5049139;28;19931;-79
2023/01/23 09:57:00;;;;;;;;;;;3.00;84.50;;;;;;5046513;28;19913;-79
2023/01/23 09:59:32;;;;;;;;;;;3.00;84.10;;;;;;5020381;28;20015;-78
2023/01/23 10:01:57;;;;;;;;;;;3.00;84.00;;;;;;5050910;28;19913;-78
2023/01/23 10:04:23;;;;;;;;;;;3.10;84.20;;;;;;5052969;28;19963;-79
2023/01/23 10:07:03;;;;;;;;;;;3.20;84.20;;;;;;5028768;28;19913;-79
2023/01/23 10:09:35;;;;;;;;;;;3.10;83.20;;;;;;5058303;28;19966;-78
2023/01/23 10:12:10;;;;;;;;;;;3.20;83.40;;;;;;5043562;28;19916;-78
2023/01/23 10:15:11;;;;;;;;;;;3.20;83.70;;;;;;5052807;28;20007;-77
2023/01/23 10:17:48;;;;;;;;;;;3.30;83.90;;;;;;4934384;29;20041;-78
2023/01/23 10:20:29;;;;;;;;;;;3.30;83.60;;;;;;5039504;28;20404;-77
2023/01/23 10:23:13;;;;;;;;;;;3.40;83.30;;;;;;5037122;28;19917;-79
2023/01/23 10:25:39;;;;;;;;;;;3.40;82.80;;;;;;5041796;28;20368;-77
2023/01/23 10:28:24;;;;;;;;;;;3.30;82.40;;;;;;5054625;28;19913;-78
2023/01/23 10:30:52;;;;;;;;;;;3.30;83.10;;;;;;5065073;28;20368;-78
2023/01/23 10:33:18;;;;;;;;;;;3.30;82.40;;;;;;5058964;28;20372;-78
2023/01/23 10:35:52;;;;;;;;;;;3.40;82.90;;;;;;5018988;28;19986;-79
2023/01/23 10:38:26;;;;;;;;;;;3.40;82.80;;;;;;5036777;28;19916;-78
2023/01/23 10:43:37;;;;;;;;;;;3.50;82.30;;;;;;5049587;28;19919;-77
2023/01/23 10:46:22;;;;;;;;;;;3.50;82.70;;;;;;5050398;28;21959;-78
2023/01/23 10:48:49;;;;;;;;;;;3.50;81.90;;;;;;5020272;28;19913;-78
2023/01/23 10:51:53;;;;;;;;;;;3.40;82.60;;;;;;5036327;28;19924;-77
2023/01/23 10:54:20;;;;;;;;;;;3.40;83.00;;;;;;4963148;28;20277;-79
2023/01/23 10:56:51;;;;;;;;;;;3.50;82.30;;;;;;4973455;28;20364;-77
2023/01/23 10:59:19;;;;;;;;;;;3.60;82.60;;;;;;5012929;28;19912;-78
2023/01/23 11:01:53;;;;;;;;;;;3.60;82.30;;;;;;5052438;28;19916;-78
2023/01/23 11:04:20;;;;;;;;;;;3.60;82.50;;;;;;5056185;28;19971;-77
2023/01/23 11:07:01;;;;;;;;;;;3.60;82.20;;;;;;5052015;28;20055;-77
2023/01/23 11:09:26;;;;;;;;;;;3.60;82.50;;;;;;5045219;28;19917;-77
2023/01/23 11:12:04;;;;;;;;;;;3.70;82.50;;;;;;5047052;28;19959;-78
2023/01/23 11:14:30;;;;;;;;;;;3.60;82.60;;;;;;5035104;28;19914;-77
2023/01/23 11:17:00;;;;;;;;;;;3.70;82.20;;;;;;5048184;28;19978;-77
2023/01/23 11:19:28;;;;;;;;;;;3.80;82.80;;;;;;5021418;28;20268;-78
2023/01/23 11:21:55;;;;;;;;;;;3.80;82.50;;;;;;5031299;28;19939;-77
2023/01/23 11:24:21;;;;;;;;;;;3.80;83.00;;;;;;5051900;28;20384;-79
2023/01/23 11:26:46;;;;;;;;;;;3.70;82.90;;;;;;5039665;28;19917;-78
2023/01/23 11:29:22;;;;;;;;;;;3.60;82.70;;;;;;5036682;28;20368;-77
2023/01/23 11:32:08;;;;;;;;;;;3.60;83.30;;;;;;5045320;28;20011;-79
2023/01/23 11:34:46;;;;;;;;;;;3.60;83.00;;;;;;5045045;28;19920;-78
2023/01/23 11:37:15;;;;;;;;;;;3.70;83.80;;;;;;5046810;28;19909;-77
2023/01/23 11:39:48;;;;;;;;;;;3.80;83.10;;;;;;5057601;28;20003;-79
2023/01/23 11:42:14;;;;;;;;;;;3.60;82.80;;;;;;5049514;28;19943;-77
2023/01/23 11:44:41;;;;;;;;;;;3.70;82.80;;;;;;5045345;28;20097;-78
2023/01/23 11:47:16;;;;;;;;;;;3.70;82.80;;;;;;5029552;28;19921;-77
2023/01/23 11:50:01;;;;;;;;;;;3.70;83.20;;;;;;5043972;28;19916;-77
2023/01/23 11:52:34;;;;;;;;;;;3.80;83.30;;;;;;5049271;28;19914;-77
2023/01/23 11:55:03;;;;;;;;;;;3.80;82.50;;;;;;5041321;28;19940;-78
2023/01/23 11:57:44;;;;;;;;;;;3.70;82.30;;;;;;5071954;28;19913;-77
2023/01/23 12:00:28;;;;;;;;;;;3.70;82.30;;;;;;5059395;28;19935;-78
2023/01/23 12:03:05;;;;;;;;;;;3.70;82.40;;;;;;5052167;28;19924;-78
2023/01/23 12:05:41;;;;;;;;;;;3.70;82.60;;;;;;5053048;28;19913;-77
2023/01/23 12:08:17;;;;;;;;;;;3.70;83.10;;;;;;5038745;28;20400;-77
2023/01/23 12:10:45;;;;;;;;;;;3.70;82.40;;;;;;5082466;22;19913;-84
2023/01/23 12:13:19;;;;;;;;;;;3.70;81.80;;;;;;5045113;28;19917;-82
2023/01/23 12:15:54;;;;;;;;;;;3.70;82.00;;;;;;5059851;28;20021;-83
2023/01/23 12:18:29;;;;;;;;;;;3.60;81.80;;;;;;5053456;28;19912;-83
2023/01/23 12:21:02;;;;;;;;;;;3.60;82.40;;;;;;5053814;28;19920;-85
2023/01/23 12:23:40;;;;;;;;;;;3.60;82.70;;;;;;5074147;28;19913;-85
2023/01/23 12:26:11;;;;;;;;;;;3.80;82.70;;;;;;5062938;28;19966;-83
2023/01/23 12:28:46;;;;;;;;;;;3.80;82.20;;;;;;5058863;28;19912;-84
2023/01/23 12:31:24;;;;;;;;;;;3.60;82.00;;;;;;5063670;28;19909;-84
2023/01/23 12:33:58;;;;;;;;;;;3.60;82.20;;;;;;5066621;28;19920;-84
2023/01/23 12:36:27;;;;;;;;;;;3.60;82.50;;;;;;5058536;28;19920;-83
2023/01/23 12:38:52;;;;;;;;;;;3.60;81.70;;;;;;5051464;28;19912;-82
2023/01/23 12:41:36;;;;;;;;;;;3.60;82.40;;;;;;5057875;28;19924;-84
2023/01/23 12:44:11;;;;;;;;;;;3.60;82.50;;;;;;5071877;28;19912;-85
2023/01/23 12:47:12;;;;;;;;;;;3.60;82.00;;;;;;5049184;28;19999;-83
2023/01/23 12:49:49;;;;;;;;;;;3.60;82.30;;;;;;5005311;28;20399;-83
2023/01/23 12:52:36;;;;;;;;;;;3.70;82.30;;;;;;5046806;28;20067;-84
2023/01/23 12:55:05;;;;;;;;;;;3.70;82.30;;;;;;5051391;28;20564;-84
2023/01/23 12:57:42;;;;;;;;;;;3.60;82.30;;;;;;5050851;28;19913;-83
2023/01/23 13:00:26;;;;;;;;;;;3.60;82.60;;;;;;5068121;28;19912;-84
2023/01/23 13:03:11;;;;;;;;;;;3.70;82.60;;;;;;5047204;28;19912;-85
2023/01/23 13:05:48;;;;;;;;;;;3.70;82.80;;;;;;5063512;28;19961;-85
2023/01/23 13:08:21;;;;;;;;;;;3.60;82.40;;;;;;5057241;28;19912;-84
2023/01/23 13:13:46;;;;;;;;;;;3.60;83.10;;;;;;5073039;28;20435;-85
2023/01/23 13:16:15;;;;;;;;;;;3.60;83.20;;;;;;5055139;28;19960;-88
2023/01/23 13:25:08;;;;;;;;;;;3.80;83.00;;;;;;5064208;28;20020;-85
2023/01/23 13:27:24;;;;;;;;;;;3.90;82.30;;;;;;5070517;28;19916;-88
2023/01/23 13:29:50;;;;;;;;;;;3.90;81.60;;;;;;5046416;28;19913;-86
2023/01/23 13:32:19;;;;;;;;;;;4.00;81.60;;;;;;5063540;28;19920;-87
2023/01/23 13:34:45;;;;;;;;;;;4.10;80.70;;;;;;5048991;28;19924;-87
2023/01/23 13:37:29;;;;;;;;;;;4.00;81.30;;;;;;5053751;28;19913;-86
2023/01/23 13:40:11;;;;;;;;;;;3.80;81.30;;;;;;5048171;28;19913;-86
2023/01/23 13:42:37;;;;;;;;;;;3.70;82.20;;;;;;5053071;28;20618;-86
2023/01/23 13:45:25;;;;;;;;;;;3.70;81.60;;;;;;5045480;28;19916;-85
2023/01/23 13:50:46;;;;;;;;;;;3.70;82.30;;;;;;5064734;28;19932;-88
2023/01/23 13:56:38;;;;;;;;;;;3.60;81.30;;;;;;5065076;28;19967;-87
2023/01/23 13:59:07;;;;;;;;;;;3.60;81.90;;;;;;5052467;28;19976;-88
2023/01/23 14:07:41;;;;;;;;;;;3.60;81.50;;;;;;5071931;28;19919;-87
2023/01/23 14:10:13;;;;;;;;;;;3.50;82.10;;;;;;5046665;28;19912;-86
2023/01/23 14:12:39;;;;;;;;;;;3.50;82.10;;;;;;5070724;28;19920;-86
2023/01/23 14:18:14;;;;;;;;;;;3.50;82.60;;;;;;5069731;28;20348;-86
2023/01/23 14:20:39;;;;;;;;;;;3.60;82.30;;;;;;5073400;28;19935;-87
2023/01/23 14:23:15;;;;;;;;;;;3.60;82.50;;;;;;5052611;28;20382;-86
2023/01/23 14:25:41;;;;;;;;;;;3.60;82.30;;;;;;5050669;28;19912;-86
2023/01/23 14:28:06;;;;;;;;;;;3.60;82.10;;;;;;5055291;28;20324;-87
2023/01/23 14:30:32;;;;;;;;;;;3.60;82.30;;;;;;5045911;28;19936;-86
2023/01/23 14:33:00;;;;;;;;;;;3.50;81.70;;;;;;5040720;28;19916;-86
2023/01/23 14:35:30;;;;;;;;;;;3.60;81.60;;;;;;5059607;28;19904;-86
2023/01/23 14:37:58;;;;;;;;;;;3.60;81.60;;;;;;5071080;28;19917;-87
2023/01/23 14:40:23;;;;;;;;;;;3.60;81.30;;;;;;5074545;28;20416;-87
2023/01/23 14:42:55;;;;;;;;;;;3.60;81.50;;;;;;5054408;28;19912;-85
2023/01/23 14:45:20;;;;;;;;;;;3.60;81.50;;;;;;5067210;28;19923;-85
2023/01/23 14:47:46;;;;;;;;;;;3.60;81.20;;;;;;5072175;28;19912;-84
2023/01/23 14:50:25;;;;;;;;;;;3.60;81.20;;;;;;5070192;28;19912;-86
2023/01/23 14:52:57;;;;;;;;;;;3.60;81.30;;;;;;5042915;28;19994;-85
2023/01/23 14:55:24;;;;;;;;;;;3.60;81.40;;;;;;5068038;28;19928;-86
2023/01/23 14:57:51;;;;;;;;;;;3.60;81.70;;;;;;5072468;28;20172;-90
2023/01/23 15:00:18;;;;;;;;;;;3.60;80.90;;;;;;5047096;28;20006;-87
2023/01/23 15:02:45;;;;;;;;;;;3.60;81.70;;;;;;5049140;28;19926;-87
2023/01/23 15:05:10;;;;;;;;;;;3.60;81.90;;;;;;5064418;28;19916;-88
2023/01/23 15:07:45;;;;;;;;;;;3.60;81.80;;;;;;5061195;28;19916;-87
2023/01/23 15:10:15;;;;;;;;;;;3.70;81.40;;;;;;5068257;28;19918;-87
2023/01/23 15:12:46;;;;;;;;;;;3.60;81.00;;;;;;5062588;28;20385;-87
2023/01/23 15:15:19;;;;;;;;;;;3.60;81.20;;;;;;5062524;28;19917;-88
2023/01/23 15:18:16;;;;;;;;;;;3.60;81.10;;;;;;5067626;28;19968;-87
2023/01/23 15:20:51;;;;;;;;;;;3.50;81.40;;;;;;5062506;28;19913;-88